sensor_id;sensor_type;location;lat;lon;timestamp;temperature;humidity
42803;DHT22;28447;48.682;9.022;2023-07-08T04:00:15;16.80;99.90
42803;DHT22;28447;48.682;9.022;2023-07-08T04:02:42;16.80;99.90
42803;DHT22;28447;48.682;9.022;2023-07-08T04:05:17;16.90;99.90
42803;DHT22;28447;48.682;9.022;2023-07-08T04:07:43;16.90;99.90
42803;DHT22;28447;48.682;9.022;2023-07-08T04:10:10;17.00;99.90
42803;DHT22;28447;48.682;9.022;2023-07-08T04:12:36;17.20;99.90
42803;DHT22;28447;48.682;9.022;2023-07-08T04:15:02;17.30;99.90
42803;DHT22;28447;48.682;9.022;2023-07-08T04:17:28;17.40;99.90
42803;DHT22;28447;48.682;9.022;2023-07-08T04:19:54;17.50;99.90
42803;DHT22;28447;48.682;9.022;2023-07-08T04:22:22;17.70;99.90
42803;DHT22;28447;48.682;9.022;2023-07-08T04:24:49;17.80;99.90
42803;DHT22;28447;48.682;9.022;2023-07-08T04:27:16;17.80;99.90
42803;DHT22;28447;48.682;9.022;2023-07-08T04:29:43;17.90;99.90
42803;DHT22;28447;48.682;9.022;2023-07-08T04:32:08;18.00;99.20
42803;DHT22;28447;48.682;9.022;2023-07-08T04:34:34;18.30;99.90
42803;DHT22;28447;48.682;9.022;2023-07-08T04:37:00;18.30;99.50
42803;DHT22;28447;48.682;9.022;2023-07-08T04:39:27;18.40;99.90
42803;DHT22;28447;48.682;9.022;2023-07-08T04:41:53;18.60;99.90
42803;DHT22;28447;48.682;9.022;2023-07-08T04:44:18;18.60;99.90
42803;DHT22;28447;48.682;9.022;2023-07-08T04:46:50;18.90;99.90
42803;DHT22;28447;48.682;9.022;2023-07-08T04:49:18;18.90;99.90
42803;DHT22;28447;48.682;9.022;2023-07-08T04:51:44;18.70;99.90
42803;DHT22;28447;48.682;9.022;2023-07-08T04:54:10;18.60;99.90
42803;DHT22;28447;48.682;9.022;2023-07-08T04:56:44;18.70;99.60
42803;DHT22;28447;48.682;9.022;2023-07-08T04:59:12;18.80;99.90
42803;DHT22;28447;48.682;9.022;2023-07-08T05:01:38;18.90;99.90
42803;DHT22;28447;48.682;9.022;2023-07-08T05:04:05;19.10;99.90
42803;DHT22;28447;48.682;9.022;2023-07-08T05:06:31;19.00;99.90
42803;DHT22;28447;48.682;9.022;2023-07-08T05:08:58;19.10;98.00
42803;DHT22;28447;48.682;9.022;2023-07-08T05:11:24;19.40;97.50
42803;DHT22;28447;48.682;9.022;2023-07-08T05:13:50;19.70;96.60
42803;DHT22;28447;48.682;9.022;2023-07-08T05:16:16;19.70;98.40
42803;DHT22;28447;48.682;9.022;2023-07-08T05:18:42;19.70;97.90
42803;DHT22;28447;48.682;9.022;2023-07-08T05:21:09;19.80;98.20
42803;DHT22;28447;48.682;9.022;2023-07-08T05:23:35;20.00;95.50
42803;DHT22;28447;48.682;9.022;2023-07-08T05:26:01;20.20;95.40
42803;DHT22;28447;48.682;9.022;2023-07-08T05:28:27;20.30;95.60
42803;DHT22;28447;48.682;9.022;2023-07-08T05:30:54;20.30;97.50
42803;DHT22;28447;48.682;9.022;2023-07-08T05:33:24;20.30;99.40
42803;DHT22;28447;48.682;9.022;2023-07-08T05:35:50;20.30;96.70
42803;DHT22;28447;48.682;9.022;2023-07-08T05:38:16;20.50;94.00
42803;DHT22;28447;48.682;9.022;2023-07-08T05:40:42;20.50;98.00
42803;DHT22;28447;48.682;9.022;2023-07-08T05:43:08;20.60;97.00
42803;DHT22;28447;48.682;9.022;2023-07-08T05:45:33;20.70;96.90
42803;DHT22;28447;48.682;9.022;2023-07-08T05:48:01;20.80;97.10
42803;DHT22;28447;48.682;9.022;2023-07-08T05:50:27;21.00;94.60
42803;DHT22;28447;48.682;9.022;2023-07-08T05:52:53;21.40;92.90
42803;DHT22;28447;48.682;9.022;2023-07-08T05:55:18;21.70;92.30
42803;DHT22;28447;48.682;9.022;2023-07-08T05:57:44;21.90;92.90
42803;DHT22;28447;48.682;9.022;2023-07-08T06:00:10;21.80;92.80
42803;DHT22;28447;48.682;9.022;2023-07-08T06:02:36;22.10;93.10
42803;DHT22;28447;48.682;9.022;2023-07-08T06:05:02;22.00;92.60
42803;DHT22;28447;48.682;9.022;2023-07-08T06:07:28;22.10;93.30
42803;DHT22;28447;48.682;9.022;2023-07-08T06:09:53;22.00;92.70
42803;DHT22;28447;48.682;9.022;2023-07-08T06:12:21;22.00;91.70
42803;DHT22;28447;48.682;9.022;2023-07-08T06:14:47;22.00;93.00
42803;DHT22;28447;48.682;9.022;2023-07-08T06:17:13;21.90;92.70
42803;DHT22;28447;48.682;9.022;2023-07-08T06:19:38;22.20;92.90
42803;DHT22;28447;48.682;9.022;2023-07-08T06:22:04;22.20;93.70
42803;DHT22;28447;48.682;9.022;2023-07-08T06:24:30;22.50;92.50
42803;DHT22;28447;48.682;9.022;2023-07-08T06:26:56;22.60;92.80
42803;DHT22;28447;48.682;9.022;2023-07-08T06:29:22;22.50;93.60
42803;DHT22;28447;48.682;9.022;2023-07-08T06:31:47;22.40;91.70
42803;DHT22;28447;48.682;9.022;2023-07-08T06:34:13;22.20;91.50
42803;DHT22;28447;48.682;9.022;2023-07-08T06:36:39;22.30;92.70
42803;DHT22;28447;48.682;9.022;2023-07-08T06:39:04;22.30;92.10
42803;DHT22;28447;48.682;9.022;2023-07-08T06:41:33;22.30;91.40
42803;DHT22;28447;48.682;9.022;2023-07-08T06:43:58;22.40;91.80
42803;DHT22;28447;48.682;9.022;2023-07-08T06:46:24;22.70;92.50
42803;DHT22;28447;48.682;9.022;2023-07-08T06:48:50;22.80;91.30
42803;DHT22;28447;48.682;9.022;2023-07-08T06:51:15;23.10;91.80
42803;DHT22;28447;48.682;9.022;2023-07-08T06:53:41;22.90;90.90
42803;DHT22;28447;48.682;9.022;2023-07-08T06:56:07;22.70;91.10
42803;DHT22;28447;48.682;9.022;2023-07-08T06:58:33;22.90;92.20
42803;DHT22;28447;48.682;9.022;2023-07-08T07:00:59;22.70;91.30
42803;DHT22;28447;48.682;9.022;2023-07-08T07:03:25;22.70;91.50
42803;DHT22;28447;48.682;9.022;2023-07-08T07:05:50;22.90;92.00
42803;DHT22;28447;48.682;9.022;2023-07-08T07:08:16;22.90;92.10
42803;DHT22;28447;48.682;9.022;2023-07-08T07:10:42;23.00;92.50
42803;DHT22;28447;48.682;9.022;2023-07-08T07:13:08;22.90;92.10
42803;DHT22;28447;48.682;9.022;2023-07-08T07:15:33;23.00;91.80
42803;DHT22;28447;48.682;9.022;2023-07-08T07:17:59;22.80;91.80
42803;DHT22;28447;48.682;9.022;2023-07-08T07:20:26;23.00;92.90
42803;DHT22;28447;48.682;9.022;2023-07-08T07:22:52;23.30;92.20
42803;DHT22;28447;48.682;9.022;2023-07-08T07:25:18;23.40;91.90
42803;DHT22;28447;48.682;9.022;2023-07-08T07:27:43;23.40;92.60
42803;DHT22;28447;48.682;9.022;2023-07-08T07:30:09;23.60;92.20
42803;DHT22;28447;48.682;9.022;2023-07-08T07:32:43;23.90;92.50
42803;DHT22;28447;48.682;9.022;2023-07-08T07:35:12;23.20;92.10
42803;DHT22;28447;48.682;9.022;2023-07-08T07:37:39;23.40;92.50
42803;DHT22;28447;48.682;9.022;2023-07-08T07:40:12;23.30;92.90
42803;DHT22;28447;48.682;9.022;2023-07-08T07:42:42;23.10;92.60
42803;DHT22;28447;48.682;9.022;2023-07-08T07:45:08;23.20;92.90
42803;DHT22;28447;48.682;9.022;2023-07-08T07:47:34;23.30;93.00
42803;DHT22;28447;48.682;9.022;2023-07-08T07:50:00;23.50;92.30
42803;DHT22;28447;48.682;9.022;2023-07-08T07:52:26;23.50;92.30
42803;DHT22;28447;48.682;9.022;2023-07-08T07:54:52;23.50;92.20
42803;DHT22;28447;48.682;9.022;2023-07-08T07:57:19;23.60;92.70
42803;DHT22;28447;48.682;9.022;2023-07-08T07:59:46;23.30;92.40
42803;DHT22;28447;48.682;9.022;2023-07-08T08:02:11;23.40;93.10
42803;DHT22;28447;48.682;9.022;2023-07-08T08:04:37;23.70;92.40
42803;DHT22;28447;48.682;9.022;2023-07-08T08:07:03;23.60;92.60
42803;DHT22;28447;48.682;9.022;2023-07-08T08:09:29;23.60;92.70
42803;DHT22;28447;48.682;9.022;2023-07-08T08:11:55;23.90;93.10
42803;DHT22;28447;48.682;9.022;2023-07-08T08:14:21;24.20;94.00
42803;DHT22;28447;48.682;9.022;2023-07-08T08:16:47;23.70;92.10
42803;DHT22;28447;48.682;9.022;2023-07-08T08:19:13;23.80;93.00
42803;DHT22;28447;48.682;9.022;2023-07-08T08:21:39;24.60;93.80
42803;DHT22;28447;48.682;9.022;2023-07-08T08:24:04;24.70;92.80
42803;DHT22;28447;48.682;9.022;2023-07-08T08:26:30;24.40;93.10
42803;DHT22;28447;48.682;9.022;2023-07-08T08:28:56;24.40;92.00
42803;DHT22;28447;48.682;9.022;2023-07-08T08:31:22;24.60;92.20
42803;DHT22;28447;48.682;9.022;2023-07-08T08:33:48;25.10;92.30
42803;DHT22;28447;48.682;9.022;2023-07-08T08:36:13;25.40;92.60
42803;DHT22;28447;48.682;9.022;2023-07-08T08:38:39;25.40;93.10
42803;DHT22;28447;48.682;9.022;2023-07-08T08:41:21;25.40;91.20
42803;DHT22;28447;48.682;9.022;2023-07-08T08:43:48;25.40;90.60
42803;DHT22;28447;48.682;9.022;2023-07-08T08:51:46;27.50;92.70
42803;DHT22;28447;48.682;9.022;2023-07-08T08:54:12;28.00;90.90
42803;DHT22;28447;48.682;9.022;2023-07-08T09:01:52;26.30;95.90
42803;DHT22;28447;48.682;9.022;2023-07-08T09:04:32;26.80;95.80
42803;DHT22;28447;48.682;9.022;2023-07-08T09:07:12;26.20;96.00
42803;DHT22;28447;48.682;9.022;2023-07-08T09:09:47;25.90;95.90
42803;DHT22;28447;48.682;9.022;2023-07-08T09:12:22;25.90;96.50
42803;DHT22;28447;48.682;9.022;2023-07-08T09:14:50;26.70;94.90
42803;DHT22;28447;48.682;9.022;2023-07-08T09:17:42;26.40;96.50
42803;DHT22;28447;48.682;9.022;2023-07-08T09:20:22;26.70;95.30
42803;DHT22;28447;48.682;9.022;2023-07-08T09:25:33;27.90;95.10
42803;DHT22;28447;48.682;9.022;2023-07-08T09:28:00;28.20;92.70
42803;DHT22;28447;48.682;9.022;2023-07-08T09:30:25;27.40;92.90
42803;DHT22;28447;48.682;9.022;2023-07-08T09:32:54;27.50;92.70
42803;DHT22;28447;48.682;9.022;2023-07-08T09:35:28;28.00;92.20
42803;DHT22;28447;48.682;9.022;2023-07-08T09:37:55;28.90;91.20
42803;DHT22;28447;48.682;9.022;2023-07-08T09:40:32;28.40;91.70
42803;DHT22;28447;48.682;9.022;2023-07-08T09:45:50;28.70;90.90
42803;DHT22;28447;48.682;9.022;2023-07-08T09:48:23;29.40;90.00
42803;DHT22;28447;48.682;9.022;2023-07-08T09:50:51;30.80;89.80
42803;DHT22;28447;48.682;9.022;2023-07-08T09:53:17;31.00;87.40
42803;DHT22;28447;48.682;9.022;2023-07-08T09:55:44;29.70;89.00
42803;DHT22;28447;48.682;9.022;2023-07-08T09:58:23;28.80;90.00
42803;DHT22;28447;48.682;9.022;2023-07-08T10:00:55;29.30;91.10
42803;DHT22;28447;48.682;9.022;2023-07-08T10:03:28;30.50;90.60
42803;DHT22;28447;48.682;9.022;2023-07-08T10:13:44;32.80;92.20
42803;DHT22;28447;48.682;9.022;2023-07-08T10:16:26;32.30;91.40
42803;DHT22;28447;48.682;9.022;2023-07-08T10:18:52;33.10;90.40
42803;DHT22;28447;48.682;9.022;2023-07-08T10:26:48;33.00;90.00
42803;DHT22;28447;48.682;9.022;2023-07-08T10:29:36;33.00;90.00
42803;DHT22;28447;48.682;9.022;2023-07-08T10:32:24;33.00;88.60
42803;DHT22;28447;48.682;9.022;2023-07-08T10:40:52;33.90;87.70
42803;DHT22;28447;48.682;9.022;2023-07-08T10:51:11;34.30;84.60
42803;DHT22;28447;48.682;9.022;2023-07-08T11:01:53;34.40;86.20
42803;DHT22;28447;48.682;9.022;2023-07-08T11:07:00;35.30;82.60
42803;DHT22;28447;48.682;9.022;2023-07-08T11:09:41;35.20;83.10
42803;DHT22;28447;48.682;9.022;2023-07-08T11:12:35;35.50;82.00
42803;DHT22;28447;48.682;9.022;2023-07-08T11:15:08;36.00;82.60
42803;DHT22;28447;48.682;9.022;2023-07-08T11:17:52;35.40;81.90
42803;DHT22;28447;48.682;9.022;2023-07-08T11:28:05;35.80;82.00
42803;DHT22;28447;48.682;9.022;2023-07-08T11:30:34;36.00;81.80
42803;DHT22;28447;48.682;9.022;2023-07-08T11:33:09;36.00;80.60
42803;DHT22;28447;48.682;9.022;2023-07-08T11:43:15;38.00;78.70
42803;DHT22;28447;48.682;9.022;2023-07-08T11:45:43;39.20;73.70
42803;DHT22;28447;48.682;9.022;2023-07-08T11:48:16;39.30;73.30
42803;DHT22;28447;48.682;9.022;2023-07-08T11:50:44;38.00;74.60
42803;DHT22;28447;48.682;9.022;2023-07-08T11:53:14;37.90;73.60
42803;DHT22;28447;48.682;9.022;2023-07-08T11:55:57;38.10;72.50
42803;DHT22;28447;48.682;9.022;2023-07-08T11:58:25;38.80;72.60
42803;DHT22;28447;48.682;9.022;2023-07-08T12:09:21;39.90;63.80
42803;DHT22;28447;48.682;9.022;2023-07-08T12:11:48;37.80;64.20
42803;DHT22;28447;48.682;9.022;2023-07-08T12:14:17;37.20;64.30
42803;DHT22;28447;48.682;9.022;2023-07-08T12:16:43;38.50;63.60
42803;DHT22;28447;48.682;9.022;2023-07-08T12:19:13;40.00;65.40
42803;DHT22;28447;48.682;9.022;2023-07-08T12:21:41;41.30;62.10
42803;DHT22;28447;48.682;9.022;2023-07-08T12:24:12;42.00;62.90
42803;DHT22;28447;48.682;9.022;2023-07-08T12:26:38;40.90;62.40
42803;DHT22;28447;48.682;9.022;2023-07-08T12:29:04;37.10;64.10
42803;DHT22;28447;48.682;9.022;2023-07-08T12:31:30;38.30;70.60
42803;DHT22;28447;48.682;9.022;2023-07-08T12:33:59;34.80;70.80
42803;DHT22;28447;48.682;9.022;2023-07-08T12:36:28;35.90;69.30
42803;DHT22;28447;48.682;9.022;2023-07-08T16:55:57;32.10;82.40
42803;DHT22;28447;48.682;9.022;2023-07-08T16:58:22;32.10;82.70
42803;DHT22;28447;48.682;9.022;2023-07-08T17:00:48;31.90;82.80
42803;DHT22;28447;48.682;9.022;2023-07-08T17:03:15;31.80;84.50
42803;DHT22;28447;48.682;9.022;2023-07-08T17:05:43;31.50;84.00
42803;DHT22;28447;48.682;9.022;2023-07-08T17:08:13;31.50;84.30
42803;DHT22;28447;48.682;9.022;2023-07-08T17:10:39;31.40;83.50
42803;DHT22;28447;48.682;9.022;2023-07-08T17:13:04;31.60;83.80
42803;DHT22;28447;48.682;9.022;2023-07-08T17:15:31;31.90;83.00
42803;DHT22;28447;48.682;9.022;2023-07-08T17:18:02;32.10;83.90
42803;DHT22;28447;48.682;9.022;2023-07-08T17:20:36;32.00;80.10
42803;DHT22;28447;48.682;9.022;2023-07-08T17:23:16;31.90;82.90
42803;DHT22;28447;48.682;9.022;2023-07-08T17:25:42;31.70;80.10
42803;DHT22;28447;48.682;9.022;2023-07-08T17:28:08;31.40;82.80
42803;DHT22;28447;48.682;9.022;2023-07-08T17:30:34;31.30;83.60
42803;DHT22;28447;48.682;9.022;2023-07-08T17:33:01;31.10;84.40
42803;DHT22;28447;48.682;9.022;2023-07-08T17:35:27;31.10;85.10
42803;DHT22;28447;48.682;9.022;2023-07-08T17:37:53;31.00;87.20
42803;DHT22;28447;48.682;9.022;2023-07-08T17:40:24;30.90;86.20
42803;DHT22;28447;48.682;9.022;2023-07-08T17:42:51;31.00;86.60
42803;DHT22;28447;48.682;9.022;2023-07-08T17:45:19;31.00;86.00
42803;DHT22;28447;48.682;9.022;2023-07-08T17:47:47;30.90;86.60
42803;DHT22;28447;48.682;9.022;2023-07-08T17:50:15;30.90;87.50
42803;DHT22;28447;48.682;9.022;2023-07-08T17:52:41;30.90;87.10
42803;DHT22;28447;48.682;9.022;2023-07-08T17:55:07;30.80;86.60
42803;DHT22;28447;48.682;9.022;2023-07-08T17:57:33;30.80;88.10
42803;DHT22;28447;48.682;9.022;2023-07-08T20:01:03;25.00;98.50
42803;DHT22;28447;48.682;9.022;2023-07-08T20:03:29;25.00;98.70
42803;DHT22;28447;48.682;9.022;2023-07-08T20:05:54;24.90;98.70
42803;DHT22;28447;48.682;9.022;2023-07-08T20:08:31;25.00;98.50
42803;DHT22;28447;48.682;9.022;2023-07-08T20:10:57;25.00;98.30
42803;DHT22;28447;48.682;9.022;2023-07-08T20:13:29;24.80;98.20
42803;DHT22;28447;48.682;9.022;2023-07-08T20:16:01;24.70;98.30
42803;DHT22;28447;48.682;9.022;2023-07-08T20:18:30;24.60;98.30
42803;DHT22;28447;48.682;9.022;2023-07-08T20:20:56;24.50;98.20
42803;DHT22;28447;48.682;9.022;2023-07-08T20:23:25;24.50;98.30
42803;DHT22;28447;48.682;9.022;2023-07-08T20:25:51;24.40;98.60
42803;DHT22;28447;48.682;9.022;2023-07-08T20:28:18;24.50;98.60
42803;DHT22;28447;48.682;9.022;2023-07-08T20:30:49;24.40;98.40
42803;DHT22;28447;48.682;9.022;2023-07-08T20:33:14;24.30;98.70
42803;DHT22;28447;48.682;9.022;2023-07-08T20:35:40;24.30;98.60
42803;DHT22;28447;48.682;9.022;2023-07-08T20:38:16;24.20;98.60
42803;DHT22;28447;48.682;9.022;2023-07-08T20:40:42;24.10;98.50
42803;DHT22;28447;48.682;9.022;2023-07-08T20:43:12;24.00;98.80
42803;DHT22;28447;48.682;9.022;2023-07-08T20:45:39;24.00;98.90
42803;DHT22;28447;48.682;9.022;2023-07-08T20:48:13;23.90;98.80
42803;DHT22;28447;48.682;9.022;2023-07-08T20:50:38;23.80;99.10
42803;DHT22;28447;48.682;9.022;2023-07-08T20:53:04;23.80;98.80
42803;DHT22;28447;48.682;9.022;2023-07-08T20:55:30;23.80;99.00
42803;DHT22;28447;48.682;9.022;2023-07-08T20:57:55;23.70;99.10
42803;DHT22;28447;48.682;9.022;2023-07-08T21:00:30;23.60;99.30
42803;DHT22;28447;48.682;9.022;2023-07-08T21:02:57;23.60;99.30
42803;DHT22;28447;48.682;9.022;2023-07-08T21:05:25;23.50;99.30
42803;DHT22;28447;48.682;9.022;2023-07-08T21:07:57;23.50;99.30
42803;DHT22;28447;48.682;9.022;2023-07-08T21:10:24;23.50;99.10
42803;DHT22;28447;48.682;9.022;2023-07-08T21:12:51;23.50;99.50
42803;DHT22;28447;48.682;9.022;2023-07-08T21:15:18;23.30;99.50
42803;DHT22;28447;48.682;9.022;2023-07-08T21:17:44;23.30;99.70
42803;DHT22;28447;48.682;9.022;2023-07-08T21:20:18;23.30;99.90
42803;DHT22;28447;48.682;9.022;2023-07-08T21:22:44;23.30;99.90
42803;DHT22;28447;48.682;9.022;2023-07-08T21:25:11;23.20;99.90
42803;DHT22;28447;48.682;9.022;2023-07-08T21:27:38;23.10;99.90
